createdAt,value
2022-09-13T00:00:12.583Z,0.00
2022-09-13T00:02:40.365Z,0.00
2022-09-13T00:05:08.937Z,0.00
2022-09-13T00:07:36.715Z,0.00
2022-09-13T00:10:05.492Z,0.00
2022-09-13T00:12:33.256Z,0.00
2022-09-13T00:15:02.388Z,0.00
2022-09-13T00:17:30.389Z,0.00
2022-09-13T00:19:58.207Z,0.00
2022-09-13T00:22:25.969Z,0.00
2022-09-13T00:24:53.723Z,0.00
2022-09-13T00:27:22.003Z,0.00
2022-09-13T00:29:49.717Z,0.00
2022-09-13T00:32:19.161Z,0.00
2022-09-13T00:34:46.883Z,0.00
2022-09-13T00:37:14.777Z,0.00
2022-09-13T00:39:44.917Z,0.00
2022-09-13T00:42:15.501Z,0.00
2022-09-13T00:44:57.444Z,0.03
2022-09-13T00:47:34.421Z,0.00
2022-09-13T00:50:08.544Z,0.00
2022-09-13T00:52:41.876Z,0.00
2022-09-13T00:55:16.384Z,0.00
2022-09-13T00:57:44.840Z,0.00
2022-09-13T01:00:14.757Z,0.00
2022-09-13T01:02:47.473Z,0.00
2022-09-13T01:05:16.293Z,0.00
2022-09-13T01:07:46.327Z,0.00
2022-09-13T01:10:14.122Z,0.00
2022-09-13T01:12:46.899Z,0.00
2022-09-13T01:15:14.933Z,0.00
2022-09-13T01:17:45.457Z,0.00
2022-09-13T01:20:14.561Z,0.00
2022-09-13T01:23:26.551Z,0.00
2022-09-13T01:26:35.266Z,0.00
2022-09-13T01:29:36.060Z,0.20
2022-09-13T01:32:16.669Z,0.00
2022-09-13T01:34:56.292Z,0.00
2022-09-13T01:37:50.867Z,0.10
2022-09-13T01:40:32.982Z,0.00
2022-09-13T01:43:17.163Z,0.00
2022-09-13T01:45:54.769Z,0.00
2022-09-13T01:48:30.125Z,0.00
2022-09-13T01:51:05.621Z,0.00
2022-09-13T01:53:41.936Z,0.10
2022-09-13T01:56:19.194Z,0.00
2022-09-13T01:58:55.689Z,0.00
2022-09-13T02:01:30.017Z,0.00
2022-09-13T02:04:04.589Z,0.00
2022-09-13T02:06:37.819Z,0.00
2022-09-13T02:09:11.254Z,0.00
2022-09-13T02:11:43.036Z,0.00
2022-09-13T02:14:16.265Z,0.00
2022-09-13T02:16:48.930Z,0.00
2022-09-13T02:19:22.815Z,0.00
2022-09-13T02:21:55.646Z,0.00
2022-09-13T02:24:29.262Z,0.00
2022-09-13T02:27:00.762Z,0.00
2022-09-13T02:29:31.216Z,0.00
2022-09-13T02:32:05.037Z,0.00
2022-09-13T02:34:39.334Z,0.00
2022-09-13T02:37:10.078Z,0.00
2022-09-13T02:39:41.843Z,0.00
2022-09-13T02:42:16.312Z,0.00
2022-09-13T02:44:47.017Z,0.00
2022-09-13T02:47:27.699Z,0.00
2022-09-13T02:50:15.123Z,0.00
2022-09-13T02:52:51.258Z,0.10
2022-09-13T02:55:25.875Z,0.10
2022-09-13T02:58:04.016Z,0.10
2022-09-13T03:00:32.372Z,0.00
2022-09-13T03:03:05.457Z,0.00
2022-09-13T03:05:34.766Z,0.00
2022-09-13T03:08:03.878Z,0.00
2022-09-13T03:10:39.035Z,0.08
2022-09-13T03:13:19.685Z,0.10
2022-09-13T03:16:00.456Z,0.00
2022-09-13T03:18:42.871Z,0.00
2022-09-13T03:21:27.994Z,0.10
2022-09-13T03:24:07.240Z,0.00
2022-09-13T03:26:43.568Z,0.10
2022-09-13T03:29:22.878Z,0.10
2022-09-13T03:31:55.213Z,0.10
2022-09-13T03:34:32.203Z,0.08
2022-09-13T03:37:09.283Z,0.10
2022-09-13T03:39:43.420Z,0.10
2022-09-13T03:42:19.797Z,0.03
2022-09-13T03:44:51.089Z,0.10
2022-09-13T03:47:20.498Z,0.10
2022-09-13T03:49:51.972Z,0.10
2022-09-13T03:52:30.200Z,0.10
2022-09-13T03:54:59.432Z,0.10
2022-09-13T03:57:27.262Z,0.10
2022-09-13T03:59:56.442Z,0.10
2022-09-13T04:02:26.158Z,0.10
2022-09-13T04:04:53.991Z,0.10
2022-09-13T04:07:25.429Z,0.10
2022-09-13T04:09:54.555Z,0.10
2022-09-13T04:12:23.008Z,0.10
2022-09-13T04:14:50.771Z,0.10
2022-09-13T04:17:18.548Z,0.10
2022-09-13T04:19:47.038Z,0.10
2022-09-13T04:22:15.085Z,0.10
2022-09-13T04:24:44.311Z,0.10
2022-09-13T04:27:14.117Z,0.10
2022-09-13T04:29:42.112Z,0.10
2022-09-13T04:32:10.992Z,0.10
2022-09-13T04:34:38.721Z,0.10
2022-09-13T04:37:06.426Z,0.05
2022-09-13T04:39:34.204Z,0.10
2022-09-13T04:42:02.375Z,0.10
2022-09-13T04:44:31.653Z,0.00
2022-09-13T04:47:00.163Z,0.10
2022-09-13T04:49:27.896Z,0.10
2022-09-13T04:51:55.656Z,0.10
2022-09-13T04:54:23.354Z,0.10
2022-09-13T04:56:51.111Z,0.10
2022-09-13T04:59:18.807Z,0.10
2022-09-13T05:01:48.073Z,0.05
2022-09-13T05:04:15.912Z,0.10
2022-09-13T05:06:43.679Z,0.10
2022-09-13T05:09:14.468Z,0.10
2022-09-13T05:11:42.749Z,0.00
2022-09-13T05:14:11.972Z,0.10
2022-09-13T05:16:40.025Z,0.00
2022-09-13T05:19:10.371Z,0.10
2022-09-13T05:21:38.260Z,0.10
2022-09-13T05:24:06.205Z,0.10
2022-09-13T05:26:34.002Z,0.10
2022-09-13T05:29:02.012Z,0.10
2022-09-13T05:31:32.244Z,0.10
2022-09-13T05:34:01.732Z,0.10
2022-09-13T05:36:30.963Z,0.10
2022-09-13T05:39:19.176Z,0.10
2022-09-13T05:41:46.917Z,0.10
2022-09-13T05:44:15.021Z,0.10
2022-09-13T05:46:43.381Z,0.10
2022-09-13T05:49:13.589Z,0.10
2022-09-13T05:51:42.834Z,0.10
2022-09-13T05:54:13.201Z,0.10
2022-09-13T05:56:41.063Z,0.10
2022-09-13T05:59:12.542Z,0.10
2022-09-13T06:01:40.362Z,0.10
2022-09-13T06:04:08.213Z,0.10
2022-09-13T06:06:36.278Z,0.30
2022-09-13T06:09:06.609Z,0.10
2022-09-13T06:11:34.383Z,0.10
2022-09-13T06:14:02.218Z,0.10
2022-09-13T06:16:30.007Z,0.10
2022-09-13T06:18:59.242Z,0.10
2022-09-13T06:21:29.308Z,0.10
2022-09-13T06:23:57.664Z,0.10
2022-09-13T06:26:28.340Z,0.10
2022-09-13T06:28:58.095Z,0.00
2022-09-13T06:31:27.972Z,0.05
2022-09-13T06:34:02.278Z,0.10
2022-09-13T06:36:30.063Z,0.10
2022-09-13T06:39:00.402Z,0.10
2022-09-13T06:41:29.643Z,0.10
2022-09-13T06:43:58.871Z,0.10
2022-09-13T06:46:27.709Z,0.10
2022-09-13T06:48:57.764Z,0.10
2022-09-13T06:51:26.343Z,0.10
2022-09-13T06:53:56.535Z,0.10
2022-09-13T06:56:25.725Z,0.10
2022-09-13T06:58:57.840Z,0.10
2022-09-13T07:01:28.436Z,0.03
2022-09-13T07:03:59.255Z,0.10
2022-09-13T07:06:29.410Z,0.10
2022-09-13T07:08:58.419Z,0.10
2022-09-13T07:11:28.433Z,0.10
2022-09-13T07:13:59.650Z,0.10
2022-09-13T07:16:29.378Z,0.10
2022-09-13T07:18:59.087Z,0.10
2022-09-13T07:21:28.220Z,0.10
2022-09-13T07:23:57.037Z,0.10
2022-09-13T07:26:27.340Z,0.10
2022-09-13T07:28:58.094Z,0.05
2022-09-13T07:31:28.829Z,0.10
2022-09-13T07:33:58.206Z,0.10
2022-09-13T07:36:27.071Z,0.10
2022-09-13T07:38:55.244Z,0.10
2022-09-13T07:41:24.742Z,0.00
2022-09-13T07:43:53.414Z,0.10
2022-09-13T07:46:24.735Z,0.10
2022-09-13T07:48:54.352Z,0.10
2022-09-13T07:51:23.699Z,0.10
2022-09-13T07:53:57.032Z,0.10
2022-09-13T07:56:26.809Z,0.10
2022-09-13T07:58:55.926Z,0.10
2022-09-13T08:01:26.634Z,0.10
2022-09-13T08:03:56.141Z,0.10
2022-09-13T08:06:24.911Z,0.10
2022-09-13T08:08:52.985Z,0.10
2022-09-13T08:11:22.948Z,0.10
2022-09-13T08:13:51.729Z,0.10
2022-09-13T08:16:20.962Z,0.10
2022-09-13T08:18:51.721Z,0.10
2022-09-13T08:21:19.881Z,0.10
2022-09-13T08:23:48.122Z,0.10
2022-09-13T08:26:16.038Z,0.10
2022-09-13T08:28:44.313Z,0.10
2022-09-13T08:31:15.315Z,0.10
2022-09-13T08:33:46.666Z,0.10
2022-09-13T08:36:17.898Z,0.10
2022-09-13T08:38:49.457Z,0.10
2022-09-13T08:41:40.824Z,0.10
2022-09-13T08:44:14.801Z,0.10
2022-09-13T08:46:46.850Z,0.10
2022-09-13T08:49:20.870Z,0.30
2022-09-13T08:51:54.071Z,0.10
2022-09-13T08:54:21.980Z,0.25
2022-09-13T08:56:56.782Z,0.20
2022-09-13T08:59:46.404Z,0.20
2022-09-13T09:02:31.982Z,0.10
2022-09-13T09:05:05.686Z,0.10
2022-09-13T09:07:41.185Z,0.17
2022-09-13T09:10:16.748Z,0.10
2022-09-13T09:12:48.496Z,0.20
2022-09-13T09:15:18.963Z,0.30
2022-09-13T09:17:55.516Z,0.30
2022-09-13T09:20:32.216Z,0.10
2022-09-13T09:23:07.426Z,0.20
2022-09-13T09:25:35.803Z,0.20
2022-09-13T09:28:12.943Z,0.20
2022-09-13T09:30:47.229Z,0.20
2022-09-13T09:33:32.076Z,0.17
2022-09-13T09:36:04.419Z,0.10
2022-09-13T09:38:41.942Z,0.30
2022-09-13T09:41:16.413Z,0.20
2022-09-13T09:43:52.543Z,0.20
2022-09-13T09:46:27.533Z,0.52
2022-09-13T09:48:58.655Z,0.40
2022-09-13T09:51:29.132Z,0.35
2022-09-13T09:54:05.211Z,0.20
2022-09-13T09:56:34.856Z,0.60
2022-09-13T09:59:03.458Z,0.50
2022-09-13T10:01:33.514Z,0.35
2022-09-13T10:04:09.533Z,0.40
2022-09-13T10:06:39.374Z,0.28
2022-09-13T10:09:17.868Z,0.30
2022-09-13T10:11:48.958Z,0.20
2022-09-13T10:14:33.125Z,0.20
2022-09-13T10:17:16.731Z,0.20
2022-09-13T10:19:55.136Z,0.20
2022-09-13T10:22:23.540Z,0.20
2022-09-13T10:24:53.579Z,0.20
2022-09-13T10:27:30.429Z,0.20
2022-09-13T10:30:02.239Z,0.20
2022-09-13T10:32:31.592Z,0.32
2022-09-13T10:35:04.134Z,0.20
2022-09-13T10:37:34.607Z,0.20
2022-09-13T10:40:09.531Z,0.30
2022-09-13T10:42:37.636Z,0.35
2022-09-13T10:45:07.677Z,0.30
2022-09-13T10:47:40.510Z,0.52
2022-09-13T10:50:21.655Z,0.60
2022-09-13T10:52:50.989Z,0.70
2022-09-13T10:55:28.971Z,0.50
2022-09-13T10:58:15.421Z,0.57
2022-09-13T11:01:05.301Z,0.50
2022-09-13T11:03:52.972Z,0.43
2022-09-13T11:06:29.706Z,0.68
2022-09-13T11:09:05.362Z,0.47
2022-09-13T11:11:43.111Z,0.70
2022-09-13T11:14:26.559Z,0.22
2022-09-13T11:17:05.966Z,0.40
2022-09-13T11:20:06.308Z,0.40
2022-09-13T11:23:00.037Z,0.38
2022-09-13T11:25:40.040Z,0.20
2022-09-13T11:28:22.116Z,0.20
2022-09-13T11:31:06.161Z,0.30
2022-09-13T11:33:47.041Z,0.20
2022-09-13T11:36:39.614Z,0.30
2022-09-13T11:39:17.190Z,0.30
2022-09-13T11:42:00.732Z,0.47
2022-09-13T11:44:49.353Z,0.20
2022-09-13T11:47:25.538Z,0.20
2022-09-13T11:50:04.342Z,0.20
2022-09-13T11:52:48.150Z,0.30
2022-09-13T11:55:20.111Z,0.60
2022-09-13T11:57:52.674Z,0.32
2022-09-13T12:00:24.145Z,0.73
2022-09-13T12:03:01.147Z,1.23
2022-09-13T12:05:33.044Z,1.05
2022-09-13T12:08:07.720Z,1.55
2022-09-13T12:10:40.091Z,0.95
2022-09-13T12:13:15.176Z,1.45
2022-09-13T12:15:47.654Z,1.52
2022-09-13T12:18:20.436Z,1.15
2022-09-13T12:20:51.606Z,1.50
2022-09-13T12:23:25.259Z,1.08
2022-09-13T12:25:58.726Z,1.00
2022-09-13T12:28:30.794Z,1.85
2022-09-13T12:31:05.457Z,1.45
2022-09-13T12:33:33.233Z,1.33
2022-09-13T12:36:36.605Z,1.98
2022-09-13T12:39:29.186Z,1.45
2022-09-13T12:42:18.120Z,1.17
2022-09-13T12:45:03.940Z,0.70
2022-09-13T12:47:48.995Z,0.85
2022-09-13T12:50:44.492Z,0.40
2022-09-13T12:53:37.874Z,0.20
2022-09-13T12:56:26.004Z,0.20
2022-09-13T12:59:21.111Z,0.35
2022-09-13T13:01:52.131Z,0.20
2022-09-13T13:04:24.909Z,0.15
2022-09-13T13:06:55.445Z,0.50
2022-09-13T13:09:31.007Z,0.20
2022-09-13T13:11:59.666Z,0.10
2022-09-13T13:14:45.155Z,0.10
2022-09-13T13:17:39.613Z,0.00
2022-09-13T13:20:45.973Z,0.00
2022-09-13T13:23:24.586Z,0.00
2022-09-13T13:26:08.590Z,0.00
2022-09-13T13:29:16.639Z,0.00
2022-09-13T13:31:47.161Z,0.00
2022-09-13T13:34:31.579Z,0.00
2022-09-13T13:37:04.219Z,0.00
2022-09-13T13:39:40.957Z,0.00
2022-09-13T13:42:14.708Z,0.00
2022-09-13T13:45:18.537Z,0.00
2022-09-13T13:48:15.236Z,0.00
2022-09-13T13:51:16.041Z,0.00
2022-09-13T13:53:49.841Z,0.00
2022-09-13T13:56:23.895Z,0.00
2022-09-13T13:58:55.757Z,0.00
2022-09-13T14:01:27.240Z,0.00
2022-09-13T14:04:38.961Z,0.00
2022-09-13T14:07:19.773Z,0.00
2022-09-13T14:09:54.889Z,0.00
2022-09-13T14:12:36.020Z,0.00
2022-09-13T14:15:31.839Z,0.00
2022-09-13T14:18:46.116Z,0.00
2022-09-13T14:21:26.638Z,0.00
2022-09-13T14:24:10.653Z,0.10
2022-09-13T14:26:41.111Z,0.00
2022-09-13T14:29:09.796Z,0.00
2022-09-13T14:31:39.026Z,0.00
2022-09-13T14:34:06.801Z,0.00
2022-09-13T14:36:36.108Z,0.00
2022-09-13T14:39:03.839Z,0.00
2022-09-13T14:41:34.119Z,0.00
2022-09-13T14:44:28.338Z,0.00
2022-09-13T14:47:06.186Z,0.00
2022-09-13T14:49:39.902Z,0.00
2022-09-13T14:52:12.002Z,0.00
2022-09-13T14:54:43.209Z,0.00
2022-09-13T14:57:21.581Z,0.00
2022-09-13T14:59:53.038Z,0.00
2022-09-13T15:02:22.787Z,0.00
2022-09-13T15:04:52.921Z,0.00
2022-09-13T15:07:28.459Z,0.00
2022-09-13T15:10:07.217Z,0.00
2022-09-13T15:12:36.002Z,0.00
2022-09-13T15:15:36.397Z,0.00
2022-09-13T15:18:07.516Z,0.00
2022-09-13T15:20:50.746Z,0.00
2022-09-13T15:23:21.697Z,0.00
2022-09-13T15:25:54.841Z,0.00
2022-09-13T15:28:25.688Z,0.00
2022-09-13T15:30:56.785Z,0.00
2022-09-13T15:33:27.911Z,0.00
2022-09-13T15:36:14.348Z,0.00
2022-09-13T15:38:59.593Z,0.00
2022-09-13T15:41:31.722Z,0.00
2022-09-13T15:44:00.472Z,0.00
2022-09-13T15:46:30.186Z,0.00
2022-09-13T15:49:01.254Z,0.00
2022-09-13T15:51:30.064Z,0.00
2022-09-13T15:53:59.043Z,0.00
2022-09-13T15:56:32.962Z,0.00
2022-09-13T15:59:00.666Z,0.00
2022-09-13T16:01:29.891Z,0.00
2022-09-13T16:03:57.688Z,0.00
2022-09-13T16:06:25.442Z,0.00
2022-09-13T16:08:53.232Z,0.00
2022-09-13T16:11:20.920Z,0.00
2022-09-13T16:13:48.751Z,0.00
2022-09-13T16:16:16.638Z,0.00
2022-09-13T16:18:46.168Z,0.00
2022-09-13T16:21:14.020Z,0.00
2022-09-13T16:23:41.930Z,0.28
2022-09-13T16:26:09.696Z,0.00
2022-09-13T16:28:37.459Z,0.00
2022-09-13T16:31:05.367Z,0.00
2022-09-13T16:33:33.177Z,0.00
2022-09-13T16:36:02.710Z,0.00
2022-09-13T16:38:30.414Z,0.00
2022-09-13T16:40:58.155Z,0.00
2022-09-13T16:43:25.856Z,0.00
2022-09-13T16:45:53.524Z,0.00
2022-09-13T16:48:21.298Z,0.00
2022-09-13T16:50:49.064Z,0.00
2022-09-13T16:53:18.156Z,0.00
2022-09-13T16:55:46.156Z,0.00
2022-09-13T16:58:13.904Z,0.00
2022-09-13T17:00:44.282Z,0.00
2022-09-13T17:03:12.283Z,0.00
2022-09-13T17:05:40.599Z,0.00
2022-09-13T17:08:08.337Z,0.00
2022-09-13T17:10:39.834Z,0.00
2022-09-13T17:13:07.709Z,0.00
2022-09-13T17:15:39.804Z,0.00
2022-09-13T17:18:07.657Z,0.00
2022-09-13T17:20:35.587Z,0.00
2022-09-13T17:23:03.329Z,0.00
2022-09-13T17:25:31.754Z,0.00
2022-09-13T17:28:00.876Z,0.00
2022-09-13T17:30:28.874Z,0.00
2022-09-13T17:32:56.605Z,0.00
2022-09-13T17:35:24.333Z,0.00
2022-09-13T17:37:52.089Z,0.00
2022-09-13T17:40:20.094Z,0.00
2022-09-13T17:42:48.929Z,0.00
2022-09-13T17:45:18.228Z,0.00
2022-09-13T17:47:46.052Z,0.00
2022-09-13T17:50:13.837Z,0.00
2022-09-13T17:52:41.914Z,0.00
2022-09-13T17:55:10.365Z,0.00
2022-09-13T17:57:38.080Z,0.00
2022-09-13T18:00:08.688Z,0.00
2022-09-13T18:02:37.824Z,0.00
2022-09-13T18:05:09.520Z,0.00
2022-09-13T18:07:39.577Z,0.00
2022-09-13T18:10:20.110Z,0.00
2022-09-13T18:12:55.432Z,0.00
2022-09-13T18:15:24.411Z,0.00
2022-09-13T18:17:53.502Z,0.00
2022-09-13T18:20:21.770Z,0.00
2022-09-13T18:22:49.506Z,0.00
2022-09-13T18:25:17.650Z,0.00
2022-09-13T18:27:45.646Z,0.00
2022-09-13T18:30:13.747Z,0.00
2022-09-13T18:32:41.577Z,0.00
2022-09-13T18:35:10.941Z,0.00
2022-09-13T18:37:38.682Z,0.00
2022-09-13T18:40:13.835Z,0.00
2022-09-13T18:42:45.040Z,0.00
2022-09-13T18:45:13.164Z,0.00
2022-09-13T18:47:40.873Z,0.00
2022-09-13T18:50:11.746Z,0.00
2022-09-13T18:52:40.452Z,0.00
2022-09-13T18:55:08.691Z,0.00
2022-09-13T18:57:36.389Z,0.00
2022-09-13T19:00:05.630Z,0.00
2022-09-13T19:02:33.616Z,0.00
2022-09-13T19:05:05.296Z,0.00
2022-09-13T19:07:36.046Z,0.00
2022-09-13T19:10:03.891Z,0.00
2022-09-13T19:12:31.645Z,0.00
2022-09-13T19:14:59.468Z,0.00
2022-09-13T19:17:27.203Z,0.00
2022-09-13T19:19:55.527Z,0.00
2022-09-13T19:22:23.266Z,0.00
2022-09-13T19:24:54.853Z,0.00
2022-09-13T19:27:22.837Z,0.00
2022-09-13T19:29:50.934Z,0.00
2022-09-13T19:32:18.716Z,0.00
2022-09-13T19:34:46.549Z,0.00
2022-09-13T19:37:14.343Z,0.00
2022-09-13T19:39:42.301Z,0.00
2022-09-13T19:42:11.635Z,0.00
2022-09-13T19:44:39.626Z,0.00
2022-09-13T19:47:53.221Z,0.00
2022-09-13T19:49:55.319Z,0.00
2022-09-13T19:52:23.285Z,0.00
2022-09-13T19:54:52.094Z,0.00
2022-09-13T19:57:21.271Z,0.00
2022-09-13T19:59:49.336Z,0.00
2022-09-13T20:02:17.194Z,0.00
2022-09-13T20:04:47.642Z,0.00
2022-09-13T20:07:15.473Z,0.00
2022-09-13T20:09:46.878Z,0.00
2022-09-13T20:12:15.234Z,0.00
2022-09-13T20:14:44.437Z,0.00
2022-09-13T20:17:12.253Z,0.00
2022-09-13T20:19:43.518Z,0.00
2022-09-13T20:22:14.314Z,0.00
2022-09-13T20:24:42.159Z,0.00
2022-09-13T20:27:10.044Z,0.00
2022-09-13T20:29:37.862Z,0.00
2022-09-13T20:32:06.981Z,0.00
2022-09-13T20:34:35.142Z,0.00
2022-09-13T20:37:02.938Z,0.00
2022-09-13T20:39:30.705Z,0.00
2022-09-13T20:41:58.992Z,0.00
2022-09-13T20:44:26.866Z,0.00
2022-09-13T20:46:54.569Z,0.00
2022-09-13T20:49:23.640Z,0.00
2022-09-13T20:51:52.091Z,0.00
2022-09-13T20:54:19.837Z,0.00
2022-09-13T20:56:47.675Z,0.00
2022-09-13T20:59:15.808Z,0.32
2022-09-13T21:01:43.862Z,0.00
2022-09-13T21:04:11.773Z,0.00
2022-09-13T21:07:03.601Z,0.00
2022-09-13T21:09:32.444Z,0.00
2022-09-13T21:12:01.205Z,1.25
2022-09-13T21:14:33.879Z,0.00
2022-09-13T21:17:06.250Z,0.00
2022-09-13T21:19:34.141Z,0.00
2022-09-13T21:22:03.997Z,0.00
2022-09-13T21:24:32.182Z,0.00
2022-09-13T21:26:59.929Z,0.00
2022-09-13T21:29:27.680Z,0.00
2022-09-13T21:31:56.729Z,0.00
2022-09-13T21:34:27.208Z,0.00
2022-09-13T21:36:55.414Z,0.00
2022-09-13T21:39:24.737Z,0.00
2022-09-13T21:41:52.578Z,0.00
2022-09-13T21:44:20.270Z,0.00
2022-09-13T21:46:48.028Z,0.00
2022-09-13T21:49:15.792Z,0.00
2022-09-13T21:51:45.345Z,0.00
2022-09-13T21:54:15.590Z,0.00
2022-09-13T21:56:50.796Z,0.00
2022-09-13T21:59:20.530Z,0.00
2022-09-13T22:01:50.345Z,0.00
2022-09-13T22:04:20.035Z,0.00
2022-09-13T22:06:51.447Z,0.00
2022-09-13T22:09:19.626Z,0.00
2022-09-13T22:11:50.432Z,0.00
2022-09-13T22:14:21.810Z,0.00
2022-09-13T22:16:52.380Z,0.00
2022-09-13T22:19:22.250Z,0.00
2022-09-13T22:21:51.609Z,0.00
2022-09-13T22:24:21.118Z,0.00
2022-09-13T22:26:52.329Z,0.00
2022-09-13T22:29:20.843Z,0.00
2022-09-13T22:31:50.338Z,0.00
2022-09-13T22:34:19.765Z,0.00
2022-09-13T22:36:47.740Z,0.00
2022-09-13T22:39:17.446Z,0.00
2022-09-13T22:41:47.693Z,0.00
2022-09-13T22:44:16.783Z,0.00
2022-09-13T22:46:45.990Z,0.00
2022-09-13T22:49:15.602Z,0.00
2022-09-13T22:51:44.893Z,0.00
2022-09-13T22:54:13.276Z,0.00
2022-09-13T22:56:41.119Z,0.00
2022-09-13T22:59:11.655Z,0.00
2022-09-13T23:01:40.824Z,0.00
2022-09-13T23:04:08.811Z,0.00
2022-09-13T23:06:36.896Z,0.00
2022-09-13T23:09:08.710Z,0.00
2022-09-13T23:11:39.076Z,0.00
2022-09-13T23:14:09.734Z,0.00
2022-09-13T23:16:42.359Z,0.00
2022-09-13T23:19:11.183Z,0.00
2022-09-13T23:21:39.532Z,0.00
2022-09-13T23:24:11.384Z,0.00
2022-09-13T23:26:39.684Z,0.00
2022-09-13T23:29:07.489Z,0.00
2022-09-13T23:31:38.733Z,0.00
2022-09-13T23:34:08.935Z,0.00
2022-09-13T23:36:38.981Z,0.00
2022-09-13T23:39:08.787Z,0.00
2022-09-13T23:41:36.958Z,0.00
2022-09-13T23:44:05.651Z,0.00
2022-09-13T23:46:33.524Z,0.00
2022-09-13T23:49:01.294Z,0.00
2022-09-13T23:51:30.938Z,0.00
2022-09-13T23:54:00.873Z,0.00
2022-09-13T23:56:30.764Z,0.00
2022-09-13T23:59:00.154Z,0.00
